ENMS  Mosjøen Airport, Kjærstad  Airport

Norway

Add Bookmark
Status IATA
Operational MJF
Latitude Longitude
65° 47' 2" N 13° 12' 53" E
65.783997 13.214900
Local (DST + 2) UTC (GMT + 1)
Mar 30, 2015 01:45 Mar 29, 2015 23:45
Sunrise-Sunset Local UTC
Begin Civil Twilight 05:32 03:32
Sunrise 06:25 04:25
Sunset 07:57 17:57
End Civil Twilight 08:50 18:50

Current Weather

METAR Observed MVFR
ENMS 292050Z 14002KT 9999 -RA FEW008 BKN016 02/01 Q0980 Sun, Mar 29, 2015 @ 20:50 UTC
(2 Hours, 55 Minutes ago)
Marginal Visual Flight Rules
Wind Visibility Clouds Conditions
140° at 2 knots (4 kph) 10 km or more
  • Few at 800' AGL
  • Broken at 1,600' AGL
  • Light Rain
Temperatures Readings Precipitation
Current Temp 2°C (36°F)
High Temp 0°C (32°F)
Dewpoint 1°C (34°F)
Humidity 93%
Altimeter 28.94"Hg
Sea Level Pressure 980mb
Field Elevation 229.66'
None Recorded

Additional weather within a 92.6km radius of ENMS

Map ICAO Location
ENST 38.9km W (300°)
ENBN 58.2km S (232°)
ENRA 80.9km N (037°)
ESUT 85.2km E (087°)

24 Hour Weather History

Loading
-

24 Hour Weather Graphs

Loading
-

CheckWX.com is intended as a tool to help pilots better visualize weather data. It is not intended as a substitute for an official weather briefing obtained from a Flight Service Station. CheckWX.com does not meet the FAA requirements for an official pre-flight weather briefing. Therefore, it's important that pilots still call and obtain an official FSS pre-flight weather briefing.